createdAt,value
2022-08-17T00:00:34.618Z,25.15
2022-08-17T00:03:04.594Z,25.14
2022-08-17T00:05:35.753Z,25.15
2022-08-17T00:08:06.135Z,25.12
2022-08-17T00:10:34.954Z,25.14
2022-08-17T00:13:07.759Z,25.09
2022-08-17T00:15:35.880Z,25.13
2022-08-17T00:18:03.977Z,25.05
2022-08-17T00:20:51.972Z,25.03
2022-08-17T00:23:21.263Z,25.00
2022-08-17T00:25:49.367Z,24.96
2022-08-17T00:28:18.228Z,24.91
2022-08-17T00:30:52.935Z,24.92
2022-08-17T00:33:24.191Z,24.93
2022-08-17T00:35:52.439Z,24.89
2022-08-17T00:38:22.886Z,24.82
2022-08-17T00:40:55.985Z,24.82
2022-08-17T00:43:32.948Z,24.78
2022-08-17T00:46:03.214Z,24.90
2022-08-17T00:48:32.086Z,24.86
2022-08-17T00:51:04.198Z,24.89
2022-08-17T00:53:36.653Z,24.82
2022-08-17T00:56:09.004Z,24.79
2022-08-17T00:58:37.832Z,24.81
2022-08-17T01:01:07.888Z,24.74
2022-08-17T01:03:38.458Z,24.76
2022-08-17T01:06:09.088Z,24.73
2022-08-17T01:08:40.576Z,24.72
2022-08-17T01:11:09.572Z,24.67
2022-08-17T01:13:41.780Z,24.66
2022-08-17T01:16:16.692Z,24.60
2022-08-17T01:18:45.701Z,24.55
2022-08-17T01:21:21.332Z,24.47
2022-08-17T01:23:50.715Z,24.44
2022-08-17T01:26:19.185Z,24.44
2022-08-17T01:28:54.181Z,24.48
2022-08-17T01:31:28.830Z,24.48
2022-08-17T01:33:59.463Z,24.51
2022-08-17T01:36:30.526Z,24.51
2022-08-17T01:39:00.136Z,24.48
2022-08-17T01:41:29.372Z,24.40
2022-08-17T01:44:01.489Z,24.42
2022-08-17T01:46:33.420Z,24.40
2022-08-17T01:49:01.916Z,24.39
2022-08-17T01:51:33.262Z,24.33
2022-08-17T01:54:07.589Z,24.27
2022-08-17T01:56:38.158Z,24.28
2022-08-17T01:59:06.427Z,24.31
2022-08-17T02:01:35.839Z,24.32
2022-08-17T02:04:04.634Z,24.28
2022-08-17T02:06:52.813Z,24.23
2022-08-17T02:09:25.702Z,24.24
2022-08-17T02:11:54.765Z,24.23
2022-08-17T02:14:25.824Z,24.18
2022-08-17T02:16:54.743Z,24.18
2022-08-17T02:19:23.597Z,24.15
2022-08-17T02:21:53.565Z,24.15
2022-08-17T02:24:58.933Z,24.11
2022-08-17T02:27:14.490Z,24.07
2022-08-17T02:29:42.529Z,24.11
2022-08-17T02:32:27.372Z,24.04
2022-08-17T02:34:57.147Z,23.96
2022-08-17T02:37:25.563Z,23.99
2022-08-17T02:39:56.951Z,24.02
2022-08-17T02:42:28.595Z,24.06
2022-08-17T02:44:56.648Z,23.92
2022-08-17T02:47:24.632Z,23.84
2022-08-17T02:49:55.499Z,23.89
2022-08-17T02:52:42.487Z,23.81
2022-08-17T02:55:16.288Z,23.81
2022-08-17T02:57:44.611Z,23.80
2022-08-17T03:00:16.192Z,23.82
2022-08-17T03:02:45.623Z,23.84
2022-08-17T03:05:15.774Z,23.83
2022-08-17T03:07:44.206Z,23.85
2022-08-17T03:10:14.236Z,23.84
2022-08-17T03:12:43.331Z,23.84
2022-08-17T03:15:13.915Z,23.82
2022-08-17T03:17:41.988Z,23.77
2022-08-17T03:20:11.405Z,23.73
2022-08-17T03:22:42.942Z,23.79
2022-08-17T03:25:21.445Z,23.79
2022-08-17T03:27:51.422Z,23.76
2022-08-17T03:30:22.389Z,23.74
2022-08-17T03:32:52.893Z,23.73
2022-08-17T03:35:24.159Z,23.76
2022-08-17T03:37:59.995Z,23.77
2022-08-17T03:40:55.728Z,23.76
2022-08-17T03:43:21.089Z,23.69
2022-08-17T03:46:11.031Z,23.69
2022-08-17T03:49:13.059Z,23.67
2022-08-17T03:51:58.434Z,23.55
2022-08-17T03:54:44.342Z,23.60
2022-08-17T03:57:14.153Z,23.59
2022-08-17T03:59:42.539Z,23.57
2022-08-17T04:02:13.470Z,23.54
2022-08-17T04:04:41.796Z,23.57
2022-08-17T04:07:09.851Z,23.56
2022-08-17T04:09:37.892Z,23.47
2022-08-17T04:12:06.620Z,23.50
2022-08-17T04:14:51.900Z,23.56
2022-08-17T04:17:23.157Z,23.58
2022-08-17T04:19:51.123Z,23.59
2022-08-17T04:22:32.421Z,23.61
2022-08-17T04:25:05.120Z,23.64
2022-08-17T04:27:33.122Z,23.69
2022-08-17T04:30:02.945Z,23.71
2022-08-17T04:33:05.192Z,23.75
2022-08-17T04:35:21.449Z,23.74
2022-08-17T04:37:49.638Z,23.80
2022-08-17T04:40:36.146Z,23.76
2022-08-17T04:43:07.068Z,23.83
2022-08-17T04:45:40.142Z,23.80
2022-08-17T04:48:23.321Z,23.85
2022-08-17T04:50:56.152Z,23.91
2022-08-17T04:53:24.090Z,23.99
2022-08-17T04:55:53.245Z,24.02
2022-08-17T04:58:21.724Z,24.07
2022-08-17T05:00:51.192Z,24.09
2022-08-17T05:03:19.190Z,24.11
2022-08-17T05:05:49.434Z,24.17
2022-08-17T05:08:19.243Z,24.22
2022-08-17T05:10:48.404Z,24.28
2022-08-17T05:13:20.605Z,24.34
2022-08-17T05:15:54.874Z,24.38
2022-08-17T05:18:24.641Z,24.38
2022-08-17T05:20:53.621Z,24.44
2022-08-17T05:23:24.395Z,24.49
2022-08-17T05:25:56.353Z,24.52
2022-08-17T05:28:27.559Z,24.57
2022-08-17T05:31:00.342Z,24.60
2022-08-17T05:33:31.118Z,24.65
2022-08-17T05:36:01.193Z,24.74
2022-08-17T05:38:30.460Z,24.84
2022-08-17T05:40:59.270Z,24.91
2022-08-17T05:43:29.497Z,24.94
2022-08-17T05:46:03.929Z,25.05
2022-08-17T05:48:43.660Z,25.17
2022-08-17T05:51:40.245Z,25.23
2022-08-17T05:54:24.666Z,25.22
2022-08-17T05:57:09.161Z,25.33
2022-08-17T05:59:48.540Z,25.40
2022-08-17T06:02:25.679Z,25.45
2022-08-17T06:05:08.935Z,25.49
2022-08-17T06:07:41.767Z,25.63
2022-08-17T06:10:15.156Z,25.64
2022-08-17T06:12:54.763Z,25.66
2022-08-17T06:15:30.945Z,25.75
2022-08-17T06:18:02.982Z,25.82
2022-08-17T06:20:38.083Z,25.84
2022-08-17T06:23:12.013Z,25.87
2022-08-17T06:25:46.587Z,25.83
2022-08-17T06:28:17.969Z,25.88
2022-08-17T06:31:00.338Z,26.05
2022-08-17T06:33:35.134Z,26.07
2022-08-17T06:36:16.013Z,26.17
2022-08-17T06:38:54.403Z,26.28
2022-08-17T06:41:27.550Z,26.32
2022-08-17T06:44:43.692Z,26.44
2022-08-17T06:47:09.002Z,26.50
2022-08-17T06:49:44.938Z,26.75
2022-08-17T06:52:45.355Z,26.88
2022-08-17T06:55:21.275Z,27.04
2022-08-17T06:57:53.621Z,27.12
2022-08-17T07:00:24.473Z,27.68
2022-08-17T07:02:58.515Z,27.69
2022-08-17T07:05:34.967Z,27.52
2022-08-17T07:08:11.577Z,27.68
2022-08-17T07:10:44.826Z,27.73
2022-08-17T07:13:34.853Z,27.56
2022-08-17T07:16:15.066Z,27.62
2022-08-17T07:18:43.784Z,27.88
2022-08-17T07:21:38.496Z,27.75
2022-08-17T07:24:41.945Z,27.79
2022-08-17T07:27:14.110Z,28.04
2022-08-17T07:29:47.838Z,28.15
2022-08-17T07:32:19.513Z,28.08
2022-08-17T07:35:11.430Z,28.12
2022-08-17T07:37:42.623Z,28.16
2022-08-17T07:40:28.125Z,28.32
2022-08-17T07:43:08.080Z,28.44
2022-08-17T07:46:27.413Z,28.50
2022-08-17T07:48:57.595Z,28.69
2022-08-17T07:51:29.163Z,28.65
2022-08-17T07:54:13.932Z,28.64
2022-08-17T07:56:45.982Z,28.84
2022-08-17T07:59:18.083Z,28.85
2022-08-17T08:02:10.243Z,29.05
2022-08-17T08:07:31.873Z,29.12
2022-08-17T08:10:10.923Z,29.18
2022-08-17T08:12:42.191Z,29.30
2022-08-17T08:15:18.646Z,29.29
2022-08-17T08:17:50.477Z,29.36
2022-08-17T08:20:52.563Z,29.51
2022-08-17T08:23:25.588Z,29.45
2022-08-17T08:26:05.250Z,29.48
2022-08-17T08:28:43.403Z,29.54
2022-08-17T08:31:24.480Z,29.66
2022-08-17T08:34:06.916Z,29.77
2022-08-17T08:36:56.857Z,29.83
2022-08-17T08:39:55.100Z,29.86
2022-08-17T08:42:32.938Z,29.96
2022-08-17T08:45:09.467Z,29.94
2022-08-17T08:47:58.056Z,29.92
2022-08-17T08:50:46.591Z,29.87
2022-08-17T08:53:28.619Z,30.10
2022-08-17T08:56:01.356Z,30.09
2022-08-17T08:58:41.270Z,30.04
2022-08-17T09:01:19.353Z,30.25
2022-08-17T09:04:21.478Z,30.21
2022-08-17T09:07:05.010Z,30.54
2022-08-17T09:09:43.779Z,30.59
2022-08-17T09:12:22.390Z,30.21
2022-08-17T09:14:58.851Z,30.65
2022-08-17T09:17:35.564Z,30.68
2022-08-17T09:20:13.741Z,31.56
2022-08-17T09:23:03.958Z,32.07
2022-08-17T09:25:36.319Z,32.40
2022-08-17T09:28:07.610Z,32.01
2022-08-17T09:30:45.474Z,32.75
2022-08-17T09:33:17.609Z,32.97
2022-08-17T09:35:50.845Z,33.43
2022-08-17T09:38:27.074Z,33.50
2022-08-17T09:41:02.913Z,33.82
2022-08-17T09:43:40.051Z,34.24
2022-08-17T09:46:16.972Z,34.60
2022-08-17T09:48:55.268Z,35.19
2022-08-17T09:51:32.601Z,35.13
2022-08-17T09:54:21.010Z,34.95
2022-08-17T09:57:28.148Z,34.87
2022-08-17T10:00:07.999Z,35.41
2022-08-17T10:03:16.360Z,35.55
2022-08-17T10:05:51.272Z,35.65
2022-08-17T10:08:34.743Z,35.71
2022-08-17T10:11:33.597Z,36.09
2022-08-17T10:14:36.757Z,36.24
2022-08-17T10:17:08.870Z,35.66
2022-08-17T10:19:40.232Z,35.02
2022-08-17T10:22:41.907Z,34.80
2022-08-17T10:25:53.574Z,35.37
2022-08-17T10:28:28.723Z,35.33
2022-08-17T10:31:33.241Z,35.83
2022-08-17T10:34:01.592Z,36.18
2022-08-17T10:36:40.929Z,35.76
2022-08-17T10:39:20.882Z,35.82
2022-08-17T10:41:52.784Z,35.93
2022-08-17T10:44:38.902Z,35.78
2022-08-17T10:47:11.631Z,36.34
2022-08-17T10:49:44.229Z,35.80
2022-08-17T10:52:41.936Z,36.22
2022-08-17T10:55:20.349Z,36.40
2022-08-17T10:57:50.669Z,36.53
2022-08-17T11:01:02.328Z,36.68
2022-08-17T11:03:33.205Z,36.45
2022-08-17T11:06:15.971Z,36.57
2022-08-17T11:09:11.788Z,36.80
2022-08-17T11:11:52.834Z,36.51
2022-08-17T11:14:36.019Z,36.85
2022-08-17T11:17:16.261Z,37.16
2022-08-17T11:20:04.581Z,36.88
2022-08-17T11:23:23.868Z,36.74
2022-08-17T11:25:54.825Z,36.78
2022-08-17T11:28:28.035Z,37.14
2022-08-17T11:30:59.372Z,35.79
2022-08-17T11:33:56.441Z,36.47
2022-08-17T11:36:38.712Z,35.98
2022-08-17T11:39:20.314Z,35.78
2022-08-17T11:41:55.827Z,35.75
2022-08-17T11:44:37.736Z,35.89
2022-08-17T11:47:29.943Z,35.31
2022-08-17T11:50:42.548Z,36.31
2022-08-17T11:56:59.949Z,36.55
2022-08-17T11:59:59.473Z,36.67
2022-08-17T12:02:47.462Z,36.46
2022-08-17T12:05:35.150Z,36.53
2022-08-17T12:08:15.169Z,36.04
2022-08-17T12:10:54.165Z,36.45
2022-08-17T12:13:23.740Z,36.54
2022-08-17T12:15:59.975Z,36.71
2022-08-17T12:18:30.377Z,35.09
2022-08-17T12:21:28.546Z,35.57
2022-08-17T12:24:03.275Z,35.53
2022-08-17T12:26:33.942Z,35.75
2022-08-17T12:29:04.394Z,35.63
2022-08-17T12:31:37.147Z,36.28
2022-08-17T12:34:06.480Z,35.93
2022-08-17T12:36:35.064Z,35.83
2022-08-17T12:39:13.697Z,35.87
2022-08-17T12:41:45.109Z,35.59
2022-08-17T12:44:17.706Z,35.30
2022-08-17T12:46:51.320Z,35.30
2022-08-17T12:49:31.664Z,35.42
2022-08-17T12:52:15.785Z,35.60
2022-08-17T12:54:50.972Z,35.06
2022-08-17T12:57:21.757Z,35.58
2022-08-17T12:59:55.493Z,35.83
2022-08-17T13:02:30.948Z,35.90
2022-08-17T13:05:01.964Z,35.96
2022-08-17T13:07:35.526Z,35.74
2022-08-17T13:10:05.138Z,35.47
2022-08-17T13:12:36.631Z,35.76
2022-08-17T13:15:05.177Z,34.93
2022-08-17T13:17:37.059Z,35.29
2022-08-17T13:20:15.690Z,35.04
2022-08-17T13:22:44.505Z,34.44
2022-08-17T13:25:17.818Z,34.94
2022-08-17T13:27:55.360Z,34.88
2022-08-17T13:30:28.049Z,35.23
2022-08-17T13:32:58.600Z,35.18
2022-08-17T13:35:41.154Z,35.28
2022-08-17T13:38:12.343Z,35.71
2022-08-17T13:40:44.338Z,35.25
2022-08-17T13:43:13.204Z,34.80
2022-08-17T13:45:50.794Z,35.25
2022-08-17T13:48:32.074Z,35.40
2022-08-17T13:51:34.534Z,35.37
2022-08-17T13:54:07.360Z,34.96
2022-08-17T13:56:40.739Z,35.11
2022-08-17T13:59:12.359Z,34.96
2022-08-17T14:01:43.052Z,34.98
2022-08-17T14:04:15.675Z,34.85
2022-08-17T14:06:52.612Z,34.93
2022-08-17T14:09:24.966Z,34.74
2022-08-17T14:11:54.051Z,34.93
2022-08-17T14:14:23.214Z,34.91
2022-08-17T14:16:51.604Z,34.47
2022-08-17T14:19:21.781Z,34.66
2022-08-17T14:21:50.354Z,34.46
2022-08-17T14:24:24.039Z,34.67
2022-08-17T14:26:53.343Z,34.66
2022-08-17T14:29:21.722Z,34.67
2022-08-17T14:31:54.256Z,34.69
2022-08-17T14:34:25.446Z,34.67
2022-08-17T14:36:53.535Z,34.79
2022-08-17T14:39:21.956Z,34.73
2022-08-17T14:41:50.194Z,34.29
2022-08-17T14:44:18.284Z,34.12
2022-08-17T14:46:47.966Z,34.04
2022-08-17T14:49:16.142Z,34.33
2022-08-17T14:51:45.472Z,34.19
2022-08-17T14:54:33.076Z,34.40
2022-08-17T14:57:25.744Z,34.30
2022-08-17T14:59:55.217Z,33.92
2022-08-17T15:02:29.375Z,34.14
2022-08-17T15:05:02.733Z,33.97
2022-08-17T15:07:32.331Z,34.01
2022-08-17T15:10:01.343Z,34.22
2022-08-17T15:12:34.627Z,34.25
2022-08-17T15:15:04.936Z,33.86
2022-08-17T15:17:43.920Z,33.92
2022-08-17T15:20:16.418Z,34.01
2022-08-17T15:22:49.728Z,34.27
2022-08-17T15:25:19.853Z,34.31
2022-08-17T15:27:48.054Z,34.14
2022-08-17T15:30:16.257Z,34.06
2022-08-17T15:32:50.786Z,34.00
2022-08-17T15:35:27.416Z,34.04
2022-08-17T15:38:07.984Z,34.11
2022-08-17T15:40:40.854Z,34.16
2022-08-17T15:43:11.263Z,33.81
2022-08-17T15:45:40.513Z,34.19
2022-08-17T15:48:09.108Z,34.20
2022-08-17T15:50:37.319Z,33.85
2022-08-17T15:53:06.840Z,33.95
2022-08-17T15:55:36.590Z,33.80
2022-08-17T15:58:04.749Z,33.88
2022-08-17T16:00:42.015Z,33.74
2022-08-17T16:03:58.108Z,33.64
2022-08-17T16:06:09.091Z,33.76
2022-08-17T16:08:43.665Z,33.66
2022-08-17T16:11:12.816Z,33.79
2022-08-17T16:13:41.724Z,33.80
2022-08-17T16:16:16.082Z,33.74
2022-08-17T16:18:44.418Z,33.87
2022-08-17T16:21:27.192Z,33.78
2022-08-17T16:23:59.484Z,34.04
2022-08-17T16:26:28.362Z,34.07
2022-08-17T16:28:57.517Z,34.14
2022-08-17T16:31:25.873Z,34.26
2022-08-17T16:34:17.603Z,34.10
2022-08-17T16:36:42.612Z,34.04
2022-08-17T16:39:26.113Z,34.12
2022-08-17T16:41:54.802Z,34.10
2022-08-17T16:44:23.363Z,33.98
2022-08-17T16:46:51.490Z,33.46
2022-08-17T16:49:24.507Z,33.74
2022-08-17T16:52:07.661Z,33.65
2022-08-17T16:54:39.200Z,33.84
2022-08-17T16:57:07.122Z,33.84
2022-08-17T16:59:40.925Z,33.73
2022-08-17T17:02:14.860Z,33.53
2022-08-17T17:04:51.108Z,33.68
2022-08-17T17:07:38.817Z,33.61
2022-08-17T17:10:11.724Z,33.46
2022-08-17T17:13:02.547Z,33.30
2022-08-17T17:15:35.525Z,33.07
2022-08-17T17:18:07.274Z,33.04
2022-08-17T17:20:43.704Z,33.14
2022-08-17T17:23:26.111Z,33.25
2022-08-17T17:26:02.558Z,33.09
2022-08-17T17:28:38.553Z,33.03
2022-08-17T17:31:14.151Z,32.98
2022-08-17T17:33:47.767Z,33.03
2022-08-17T17:36:25.237Z,33.08
2022-08-17T17:38:59.166Z,32.85
2022-08-17T17:41:33.814Z,32.89
2022-08-17T17:44:06.123Z,33.01
2022-08-17T17:46:39.503Z,32.91
2022-08-17T17:49:10.133Z,32.77
2022-08-17T17:52:09.454Z,32.85
2022-08-17T17:54:49.641Z,32.63
2022-08-17T17:57:26.766Z,32.62
2022-08-17T18:00:03.161Z,32.43
2022-08-17T18:02:54.568Z,32.33
2022-08-17T18:05:49.739Z,32.31
2022-08-17T18:08:34.291Z,32.15
2022-08-17T18:11:35.125Z,31.92
2022-08-17T18:14:17.275Z,31.80
2022-08-17T18:16:48.023Z,31.64
2022-08-17T18:19:20.058Z,31.52
2022-08-17T18:21:53.188Z,31.53
2022-08-17T18:24:31.964Z,31.39
2022-08-17T18:27:01.329Z,31.41
2022-08-17T18:29:38.509Z,31.30
2022-08-17T18:32:20.230Z,31.25
2022-08-17T18:34:51.807Z,31.19
2022-08-17T18:37:42.759Z,31.20
2022-08-17T18:40:37.986Z,31.12
2022-08-17T18:43:13.360Z,30.99
2022-08-17T18:45:47.356Z,30.98
2022-08-17T18:48:23.075Z,30.93
2022-08-17T18:50:53.330Z,30.76
2022-08-17T18:53:34.153Z,30.76
2022-08-17T18:56:26.690Z,30.67
2022-08-17T18:59:04.766Z,30.70
2022-08-17T19:01:53.519Z,30.73
2022-08-17T19:04:34.832Z,30.52
2022-08-17T19:07:06.666Z,30.61
2022-08-17T19:09:37.731Z,30.41
2022-08-17T19:12:11.446Z,30.45
2022-08-17T19:14:39.655Z,30.37
2022-08-17T19:17:15.057Z,30.23
2022-08-17T19:19:50.578Z,30.20
2022-08-17T19:22:30.650Z,30.24
2022-08-17T19:25:12.543Z,30.19
2022-08-17T19:27:51.481Z,30.09
2022-08-17T19:30:26.121Z,30.09
2022-08-17T19:32:57.689Z,30.13
2022-08-17T19:35:34.727Z,29.83
2022-08-17T19:38:12.689Z,29.90
2022-08-17T19:40:59.129Z,29.91
2022-08-17T19:43:39.425Z,29.93
2022-08-17T19:46:16.242Z,30.00
2022-08-17T19:48:53.407Z,29.93
2022-08-17T19:51:28.567Z,29.92
2022-08-17T19:54:06.682Z,29.74
2022-08-17T19:56:43.479Z,29.74
2022-08-17T19:59:21.086Z,29.84
2022-08-17T20:01:54.012Z,29.76
2022-08-17T20:04:41.682Z,29.83
2022-08-17T20:07:17.671Z,29.71
2022-08-17T20:09:51.484Z,29.79
2022-08-17T20:12:22.813Z,29.70
2022-08-17T20:14:57.207Z,29.66
2022-08-17T20:17:28.624Z,29.65
2022-08-17T20:20:06.438Z,29.66
2022-08-17T20:22:51.856Z,29.64
2022-08-17T20:25:30.257Z,29.60
2022-08-17T20:28:06.637Z,29.55
2022-08-17T20:30:38.495Z,29.61
2022-08-17T20:33:13.187Z,29.61
2022-08-17T20:36:03.124Z,29.59
2022-08-17T20:38:48.873Z,29.59
2022-08-17T20:41:20.816Z,29.38
2022-08-17T20:44:06.350Z,29.48
2022-08-17T20:46:52.852Z,29.32
2022-08-17T20:49:27.827Z,29.21
2022-08-17T20:52:02.842Z,29.01
2022-08-17T20:54:50.403Z,28.97
2022-08-17T20:57:49.547Z,28.98
2022-08-17T21:00:46.324Z,28.80
2022-08-17T21:03:50.496Z,29.01
2022-08-17T21:06:23.008Z,28.90
2022-08-17T21:08:57.584Z,28.82
2022-08-17T21:12:04.409Z,28.74
2022-08-17T21:14:56.188Z,28.64
2022-08-17T21:17:44.670Z,28.88
2022-08-17T21:20:35.185Z,28.85
2022-08-17T21:23:17.150Z,28.98
2022-08-17T21:26:12.844Z,28.94
2022-08-17T21:29:00.530Z,28.79
2022-08-17T21:31:35.770Z,28.88
2022-08-17T21:34:27.027Z,28.68
2022-08-17T21:36:56.616Z,28.77
2022-08-17T21:39:33.097Z,28.72
2022-08-17T21:42:03.471Z,28.70
2022-08-17T21:44:34.887Z,28.77
2022-08-17T21:47:20.272Z,28.59
2022-08-17T21:49:48.334Z,28.79
2022-08-17T21:52:18.992Z,28.86
2022-08-17T21:54:52.225Z,28.71
2022-08-17T21:57:26.510Z,28.57
2022-08-17T21:59:57.327Z,28.60
2022-08-17T22:02:27.951Z,28.57
2022-08-17T22:05:02.911Z,28.58
2022-08-17T22:07:42.079Z,28.54
2022-08-17T22:10:30.495Z,28.60
2022-08-17T22:13:17.008Z,28.65
2022-08-17T22:15:47.136Z,28.37
2022-08-17T22:18:20.447Z,28.38
2022-08-17T22:20:51.582Z,28.35
2022-08-17T22:23:43.557Z,28.31
2022-08-17T22:26:14.507Z,28.29
2022-08-17T22:28:47.515Z,28.39
2022-08-17T22:31:17.781Z,28.31
2022-08-17T22:33:47.994Z,28.38
2022-08-17T22:36:29.529Z,28.44
2022-08-17T22:38:59.364Z,28.43
2022-08-17T22:41:43.793Z,28.35
2022-08-17T22:44:27.157Z,28.25
2022-08-17T22:46:59.021Z,28.29
2022-08-17T22:49:33.220Z,28.16
2022-08-17T22:52:04.173Z,28.08
2022-08-17T22:54:49.833Z,28.14
2022-08-17T22:57:51.455Z,27.93
2022-08-17T23:00:34.554Z,28.05
2022-08-17T23:03:12.877Z,28.00
2022-08-17T23:05:43.568Z,28.04
2022-08-17T23:08:12.920Z,27.93
2022-08-17T23:10:41.932Z,28.09
2022-08-17T23:13:12.151Z,27.94
2022-08-17T23:15:43.097Z,28.09
2022-08-17T23:18:11.640Z,28.04
2022-08-17T23:20:41.891Z,27.95
2022-08-17T23:23:15.169Z,27.93
2022-08-17T23:25:46.440Z,27.88
2022-08-17T23:28:14.619Z,27.86
2022-08-17T23:30:46.615Z,27.90
2022-08-17T23:33:20.230Z,27.90
2022-08-17T23:35:48.735Z,27.57
2022-08-17T23:38:16.715Z,27.54
2022-08-17T23:40:44.943Z,27.60
2022-08-17T23:43:23.581Z,27.63
2022-08-17T23:45:55.482Z,27.60
2022-08-17T23:48:35.073Z,27.66
2022-08-17T23:51:09.016Z,27.59
2022-08-17T23:53:40.257Z,27.50
2022-08-17T23:56:11.278Z,27.38
2022-08-17T23:58:42.218Z,27.38
